Terminal Aerodrome Forecast
Issued by NWS

Home | Current Version | Previous Version | Text Only | Print | Product List | Glossary On
Versions: 1 2 3 4 5 6 7 8 9 10 11 12 13 14 15 16 17 18 19 20 21 22 23 24 25 26 27 28 29
000
FTUS44 KHGX 220525
TAFCXO
TAF
KCXO 220525Z 2206/2306 33009KT 2SM BR VCTS OVC003CB
      TEMPO 2206/2208 TSRA
     FM220900 36005KT 2SM BR VCSH OVC003
     FM221800 03007KT 4SM BR VCSH OVC007
     FM230000 14006KT 3SM BR VCSH OVC004=

USA.gov is the U.S. government's official web portal to all federal, state and local government web resources and services.